Time;durP1;ratioP1;P1;durP2;ratioP2;P2;SDS_P1;SDS_P2;PMS_P1;PMS_P2;Temp;Humidity;BMP_temperature;BMP_pressure;BME280_temperature;BME280_humidity;BME280_pressure;Samples;Min_cycle;Max_cycle;Signal;HPM_P1;HPM_P2
2023/03/17 00:02:13;;;;;;;;;;;13.20;63.30;;;;;;5055873;28;20221;-86
2023/03/17 00:04:39;;;;;;;;;;;13.20;63.30;;;;;;5054065;28;20180;-87
2023/03/17 00:07:05;;;;;;;;;;;13.20;63.30;;;;;;5054246;28;19920;-86
2023/03/17 00:09:33;;;;;;;;;;;13.20;63.10;;;;;;5053768;28;19916;-86
2023/03/17 00:11:59;;;;;;;;;;;13.20;63.10;;;;;;5055165;28;19913;-87
2023/03/17 00:14:24;;;;;;;;;;;13.20;63.10;;;;;;5053769;28;20267;-87
2023/03/17 00:16:51;;;;;;;;;;;13.20;63.10;;;;;;5054235;28;19909;-86
2023/03/17 00:19:20;;;;;;;;;;;13.20;63.10;;;;;;5054920;28;19959;-87
2023/03/17 00:21:46;;;;;;;;;;;13.20;63.00;;;;;;5053459;28;19932;-87
2023/03/17 00:24:12;;;;;;;;;;;13.20;63.00;;;;;;5053664;28;19909;-86
2023/03/17 00:26:41;;;;;;;;;;;13.20;62.90;;;;;;5054137;28;20350;-87
2023/03/17 00:29:10;;;;;;;;;;;13.20;62.90;;;;;;5054176;28;19913;-88
2023/03/17 00:31:36;;;;;;;;;;;13.20;62.90;;;;;;5054753;28;19920;-86
2023/03/17 00:34:02;;;;;;;;;;;13.20;63.00;;;;;;5053965;28;19909;-86
2023/03/17 00:36:29;;;;;;;;;;;13.30;62.90;;;;;;5054429;28;19940;-87
2023/03/17 00:38:58;;;;;;;;;;;13.20;62.90;;;;;;5055862;28;19916;-87
2023/03/17 00:41:23;;;;;;;;;;;13.20;62.90;;;;;;5055871;28;20003;-87
2023/03/17 00:43:49;;;;;;;;;;;13.20;62.80;;;;;;5056367;28;20003;-87
2023/03/17 00:46:17;;;;;;;;;;;13.20;62.80;;;;;;5055095;28;19908;-87
2023/03/17 00:48:47;;;;;;;;;;;13.20;62.70;;;;;;5053733;28;19913;-87
2023/03/17 00:51:14;;;;;;;;;;;13.20;62.90;;;;;;5054631;28;19946;-87
2023/03/17 00:53:40;;;;;;;;;;;13.20;62.90;;;;;;5053422;28;19910;-87
2023/03/17 00:56:16;;;;;;;;;;;13.20;62.90;;;;;;5053875;28;19920;-87
2023/03/17 00:58:42;;;;;;;;;;;13.20;63.00;;;;;;5054694;28;20171;-87
2023/03/17 01:01:08;;;;;;;;;;;13.20;63.10;;;;;;5054658;28;19974;-86
2023/03/17 01:03:33;;;;;;;;;;;13.20;63.10;;;;;;5054270;28;19917;-86
2023/03/17 01:06:00;;;;;;;;;;;13.20;63.20;;;;;;5053740;28;19978;-87
2023/03/17 01:08:27;;;;;;;;;;;13.20;63.20;;;;;;5056323;28;20349;-87
2023/03/17 01:10:56;;;;;;;;;;;13.20;63.20;;;;;;5055941;28;20251;-87
2023/03/17 01:13:25;;;;;;;;;;;13.20;63.30;;;;;;5055541;28;19931;-87
2023/03/17 01:15:50;;;;;;;;;;;13.20;63.40;;;;;;5055229;28;19917;-87
2023/03/17 01:18:20;;;;;;;;;;;13.20;63.50;;;;;;5055285;28;20051;-87
2023/03/17 01:20:45;;;;;;;;;;;13.20;63.60;;;;;;5055627;28;19924;-87
2023/03/17 01:23:14;;;;;;;;;;;13.20;63.70;;;;;;5055354;28;19909;-87
2023/03/17 01:25:44;;;;;;;;;;;13.20;63.70;;;;;;5055138;28;19920;-87
2023/03/17 01:28:14;;;;;;;;;;;13.20;63.80;;;;;;5054630;28;19912;-87
2023/03/17 01:30:40;;;;;;;;;;;13.20;63.90;;;;;;5054962;28;19909;-87
2023/03/17 01:33:08;;;;;;;;;;;13.20;64.00;;;;;;5053860;28;19909;-87
2023/03/17 01:35:40;;;;;;;;;;;13.20;64.70;;;;;;5052964;28;19917;-87
2023/03/17 01:38:09;;;;;;;;;;;13.20;64.10;;;;;;5053431;28;19909;-87
2023/03/17 01:40:41;;;;;;;;;;;13.20;64.30;;;;;;5054236;28;19919;-87
2023/03/17 01:43:07;;;;;;;;;;;13.20;65.00;;;;;;5055870;28;19916;-87
2023/03/17 01:45:51;;;;;;;;;;;13.20;64.40;;;;;;5046741;28;20005;-87
2023/03/17 01:48:17;;;;;;;;;;;13.20;64.50;;;;;;5055098;28;19971;-87
2023/03/17 01:50:44;;;;;;;;;;;13.20;64.60;;;;;;5054761;28;20178;-87
2023/03/17 01:53:14;;;;;;;;;;;13.20;64.60;;;;;;5054881;28;19963;-87
2023/03/17 01:55:40;;;;;;;;;;;13.20;64.60;;;;;;5055565;28;19909;-87
2023/03/17 01:58:06;;;;;;;;;;;13.20;64.70;;;;;;5056577;28;19963;-87
2023/03/17 02:00:35;;;;;;;;;;;13.20;64.70;;;;;;5057903;28;19956;-87
2023/03/17 02:03:00;;;;;;;;;;;13.20;64.80;;;;;;5056117;28;19909;-87
2023/03/17 02:05:29;;;;;;;;;;;13.20;64.80;;;;;;5055864;28;19909;-87
2023/03/17 02:07:55;;;;;;;;;;;13.20;64.90;;;;;;5057476;28;19909;-87
2023/03/17 02:10:22;;;;;;;;;;;13.20;64.90;;;;;;5055839;28;20286;-87
2023/03/17 02:12:56;;;;;;;;;;;13.20;65.00;;;;;;5055938;28;19909;-86
2023/03/17 02:15:23;;;;;;;;;;;13.20;65.00;;;;;;5055792;28;19920;-87
2023/03/17 02:17:48;;;;;;;;;;;13.20;65.10;;;;;;5056727;28;20330;-88
2023/03/17 02:20:14;;;;;;;;;;;13.20;65.10;;;;;;5057491;28;19912;-87
2023/03/17 02:22:42;;;;;;;;;;;13.20;65.10;;;;;;5057407;28;20007;-87
2023/03/17 02:25:12;;;;;;;;;;;13.20;65.20;;;;;;5057107;28;19919;-87
2023/03/17 02:27:41;;;;;;;;;;;13.20;65.20;;;;;;5054807;28;19909;-87
2023/03/17 02:30:08;;;;;;;;;;;13.20;65.20;;;;;;5054693;28;20022;-87
2023/03/17 02:32:34;;;;;;;;;;;13.20;65.20;;;;;;5055420;28;19909;-87
2023/03/17 02:35:00;;;;;;;;;;;13.20;65.30;;;;;;5054453;28;20159;-87
2023/03/17 02:37:29;;;;;;;;;;;13.20;65.20;;;;;;5053929;28;19915;-87
2023/03/17 02:39:55;;;;;;;;;;;13.20;65.30;;;;;;5056627;28;20263;-87
2023/03/17 02:42:20;;;;;;;;;;;13.20;65.30;;;;;;5055230;28;19913;-87
2023/03/17 02:44:47;;;;;;;;;;;13.20;65.30;;;;;;5054901;28;19913;-87
2023/03/17 02:47:16;;;;;;;;;;;13.20;65.30;;;;;;5054969;28;20196;-87
2023/03/17 02:49:42;;;;;;;;;;;13.20;65.30;;;;;;5054748;28;19931;-87
2023/03/17 02:52:08;;;;;;;;;;;13.20;65.30;;;;;;5056556;28;19909;-87
2023/03/17 02:54:33;;;;;;;;;;;13.20;65.40;;;;;;5057556;28;19909;-88
2023/03/17 02:56:59;;;;;;;;;;;13.20;65.40;;;;;;5056393;28;19932;-87
2023/03/17 02:59:25;;;;;;;;;;;13.20;65.40;;;;;;5057274;28;20290;-87
2023/03/17 03:01:54;;;;;;;;;;;13.20;65.40;;;;;;5055960;28;20291;-87
2023/03/17 03:04:21;;;;;;;;;;;13.20;65.50;;;;;;5055962;28;20201;-87
2023/03/17 03:06:46;;;;;;;;;;;13.20;65.40;;;;;;5057519;28;19909;-87
2023/03/17 03:09:13;;;;;;;;;;;13.20;65.40;;;;;;5056322;28;19920;-87
2023/03/17 03:11:49;;;;;;;;;;;13.20;65.40;;;;;;5055983;28;20282;-87
2023/03/17 03:14:15;;;;;;;;;;;13.20;65.50;;;;;;5055270;28;19952;-87
2023/03/17 03:16:40;;;;;;;;;;;13.20;65.50;;;;;;5055725;28;19959;-87
2023/03/17 03:19:06;;;;;;;;;;;13.20;65.70;;;;;;5056415;28;19920;-86
2023/03/17 03:21:32;;;;;;;;;;;13.20;65.70;;;;;;5056116;28;19952;-86
2023/03/17 03:23:58;;;;;;;;;;;13.20;65.70;;;;;;5056505;28;20269;-87
2023/03/17 03:26:27;;;;;;;;;;;13.20;65.70;;;;;;5056601;28;20161;-86
2023/03/17 03:28:52;;;;;;;;;;;13.20;65.70;;;;;;5057383;28;19916;-87
2023/03/17 03:31:18;;;;;;;;;;;13.20;65.80;;;;;;5057431;28;19928;-86
2023/03/17 03:33:44;;;;;;;;;;;13.20;65.80;;;;;;5056765;28;19909;-87
2023/03/17 03:36:13;;;;;;;;;;;13.20;65.80;;;;;;5056250;28;19986;-87
2023/03/17 03:38:40;;;;;;;;;;;13.20;65.90;;;;;;5055826;28;19912;-87
2023/03/17 03:41:06;;;;;;;;;;;13.20;65.80;;;;;;5055606;28;19909;-88
2023/03/17 03:43:31;;;;;;;;;;;13.20;65.80;;;;;;5056212;28;19974;-86
2023/03/17 03:45:57;;;;;;;;;;;13.10;65.80;;;;;;5056516;28;20195;-87
2023/03/17 03:48:23;;;;;;;;;;;13.20;65.90;;;;;;5056442;28;20181;-86
2023/03/17 03:50:48;;;;;;;;;;;13.10;65.80;;;;;;5057155;28;20267;-87
2023/03/17 03:53:14;;;;;;;;;;;13.10;65.80;;;;;;5056297;28;19909;-86
2023/03/17 03:55:40;;;;;;;;;;;13.10;65.70;;;;;;5055558;28;19913;-87
2023/03/17 03:58:09;;;;;;;;;;;13.10;65.70;;;;;;5056755;28;19909;-86
2023/03/17 04:00:38;;;;;;;;;;;13.10;65.70;;;;;;5055928;28;19908;-87
2023/03/17 04:03:04;;;;;;;;;;;13.10;65.60;;;;;;5054960;28;19909;-87
2023/03/17 04:05:30;;;;;;;;;;;13.10;65.50;;;;;;5054514;28;19920;-86
2023/03/17 04:07:55;;;;;;;;;;;13.10;65.40;;;;;;5053819;28;19909;-87
2023/03/17 04:10:22;;;;;;;;;;;13.10;65.40;;;;;;5055551;28;19928;-86
2023/03/17 04:12:47;;;;;;;;;;;13.10;65.30;;;;;;5054110;28;19924;-87
2023/03/17 04:15:17;;;;;;;;;;;13.10;65.30;;;;;;5053831;28;19921;-87
2023/03/17 04:17:43;;;;;;;;;;;13.10;65.20;;;;;;5053340;28;19917;-87
2023/03/17 04:20:09;;;;;;;;;;;13.10;65.10;;;;;;5054143;28;20222;-87
2023/03/17 04:22:35;;;;;;;;;;;13.10;65.00;;;;;;5053417;28;20011;-87
2023/03/17 04:25:03;;;;;;;;;;;13.10;65.00;;;;;;5051006;28;20062;-87
2023/03/17 04:27:32;;;;;;;;;;;13.10;65.00;;;;;;5051842;28;19987;-87
2023/03/17 04:29:58;;;;;;;;;;;13.10;64.80;;;;;;5052465;28;19924;-87
2023/03/17 04:32:26;;;;;;;;;;;13.10;64.80;;;;;;5052049;28;19909;-87
2023/03/17 04:34:55;;;;;;;;;;;13.10;64.70;;;;;;5053715;28;19928;-87
2023/03/17 04:37:21;;;;;;;;;;;13.10;64.60;;;;;;5053881;28;19970;-87
2023/03/17 04:39:51;;;;;;;;;;;13.10;64.60;;;;;;5053207;28;19991;-87
2023/03/17 04:42:16;;;;;;;;;;;13.10;64.50;;;;;;5035798;28;19913;-86
2023/03/17 04:44:45;;;;;;;;;;;13.10;64.30;;;;;;5053586;28;19938;-87
2023/03/17 04:47:11;;;;;;;;;;;13.10;64.30;;;;;;5051482;28;19987;-87
2023/03/17 04:49:37;;;;;;;;;;;13.10;64.30;;;;;;5051008;28;19975;-86
2023/03/17 04:52:02;;;;;;;;;;;13.10;64.30;;;;;;5050873;28;19920;-87
2023/03/17 04:54:28;;;;;;;;;;;13.10;64.20;;;;;;5051304;28;19913;-88
2023/03/17 04:56:56;;;;;;;;;;;13.10;64.20;;;;;;5050859;28;19936;-86
2023/03/17 04:59:22;;;;;;;;;;;13.10;64.20;;;;;;5052481;28;19909;-87
2023/03/17 05:01:47;;;;;;;;;;;13.10;64.10;;;;;;5049799;28;19909;-87
2023/03/17 05:04:13;;;;;;;;;;;13.10;64.10;;;;;;5051907;28;19909;-87
2023/03/17 05:06:43;;;;;;;;;;;13.10;64.00;;;;;;5051618;28;19908;-87
2023/03/17 05:09:11;;;;;;;;;;;13.10;64.00;;;;;;5050116;28;19917;-86
2023/03/17 05:11:41;;;;;;;;;;;13.10;64.00;;;;;;5051732;28;19916;-86
2023/03/17 05:14:06;;;;;;;;;;;13.10;64.00;;;;;;5050754;28;19909;-86
2023/03/17 05:16:35;;;;;;;;;;;13.10;63.80;;;;;;5050896;28;20272;-86
2023/03/17 05:19:03;;;;;;;;;;;13.10;63.70;;;;;;5050525;28;19917;-86
2023/03/17 05:21:29;;;;;;;;;;;13.10;63.70;;;;;;5054216;28;20278;-87
2023/03/17 05:23:55;;;;;;;;;;;13.00;63.40;;;;;;5055203;28;19909;-86
2023/03/17 05:26:21;;;;;;;;;;;13.00;63.40;;;;;;5054704;28;19909;-87
2023/03/17 05:28:47;;;;;;;;;;;13.00;63.30;;;;;;5055415;28;20396;-86
2023/03/17 05:31:17;;;;;;;;;;;13.00;63.20;;;;;;5054819;28;19938;-87
2023/03/17 05:33:48;;;;;;;;;;;13.00;63.10;;;;;;5054908;28;20352;-87
2023/03/17 05:36:16;;;;;;;;;;;13.00;63.00;;;;;;5053285;28;19917;-86
2023/03/17 05:38:45;;;;;;;;;;;13.00;62.90;;;;;;5051807;28;20214;-86
2023/03/17 05:41:14;;;;;;;;;;;13.00;64.00;;;;;;5052215;28;20098;-87
2023/03/17 05:43:40;;;;;;;;;;;13.00;64.40;;;;;;5052240;28;19955;-86
2023/03/17 05:46:06;;;;;;;;;;;13.00;64.10;;;;;;5054276;28;20305;-86
2023/03/17 05:48:32;;;;;;;;;;;13.00;64.00;;;;;;5053957;28;19908;-86
2023/03/17 05:50:57;;;;;;;;;;;13.10;63.90;;;;;;5052086;28;19909;-86
2023/03/17 05:53:26;;;;;;;;;;;13.10;63.80;;;;;;5053552;28;19949;-86
2023/03/17 05:55:54;;;;;;;;;;;13.10;64.00;;;;;;5053951;28;19909;-88
2023/03/17 05:58:21;;;;;;;;;;;13.10;64.00;;;;;;5051868;28;20000;-86
2023/03/17 06:00:55;;;;;;;;;;;13.10;63.80;;;;;;5054704;28;19909;-88
2023/03/17 06:03:21;;;;;;;;;;;13.10;63.70;;;;;;5052408;28;20067;-86
2023/03/17 06:05:47;;;;;;;;;;;13.10;63.60;;;;;;5051670;28;20389;-86
2023/03/17 06:08:12;;;;;;;;;;;13.10;63.60;;;;;;5050323;28;19909;-86
2023/03/17 06:10:38;;;;;;;;;;;13.10;63.40;;;;;;5051457;28;19923;-86
2023/03/17 06:13:07;;;;;;;;;;;13.10;63.30;;;;;;5052331;28;19917;-86
2023/03/17 06:15:36;;;;;;;;;;;13.10;63.30;;;;;;5050528;28;19952;-85
2023/03/17 06:18:04;;;;;;;;;;;13.20;63.30;;;;;;5050867;28;20020;-85
2023/03/17 06:20:30;;;;;;;;;;;13.20;63.10;;;;;;5051704;28;20226;-86
2023/03/17 06:22:55;;;;;;;;;;;13.20;62.90;;;;;;5052727;28;20012;-86
2023/03/17 06:25:21;;;;;;;;;;;13.30;62.80;;;;;;5052730;28;19999;-86
2023/03/17 06:27:47;;;;;;;;;;;13.30;62.50;;;;;;5051404;28;19920;-87
2023/03/17 06:30:12;;;;;;;;;;;13.40;62.20;;;;;;5052322;28;19913;-86
2023/03/17 06:32:39;;;;;;;;;;;13.50;61.90;;;;;;5051331;28;19909;-86
2023/03/17 06:35:06;;;;;;;;;;;13.60;61.40;;;;;;5056072;28;19925;-87
2023/03/17 06:37:32;;;;;;;;;;;13.70;60.90;;;;;;5047292;28;20270;-86
2023/03/17 06:39:59;;;;;;;;;;;13.90;60.40;;;;;;5048420;28;20294;-86
2023/03/17 06:42:25;;;;;;;;;;;14.10;59.70;;;;;;5047086;28;20073;-86
2023/03/17 06:44:51;;;;;;;;;;;14.40;59.00;;;;;;5045875;28;19919;-86
2023/03/17 06:47:17;;;;;;;;;;;14.70;58.80;;;;;;5050256;28;20134;-87
2023/03/17 06:49:43;;;;;;;;;;;15.00;57.80;;;;;;5047537;28;20250;-86
2023/03/17 06:52:08;;;;;;;;;;;15.20;57.20;;;;;;5045879;28;20089;-86
2023/03/17 06:54:35;;;;;;;;;;;15.40;56.60;;;;;;5045257;28;20047;-86
2023/03/17 06:57:00;;;;;;;;;;;15.70;56.00;;;;;;5043155;28;19975;-87
2023/03/17 06:59:29;;;;;;;;;;;16.10;55.30;;;;;;5045051;28;19916;-86
2023/03/17 07:01:59;;;;;;;;;;;16.50;54.60;;;;;;5045832;28;19908;-86
2023/03/17 07:04:24;;;;;;;;;;;16.80;53.80;;;;;;5043641;28;19909;-87
2023/03/17 07:06:50;;;;;;;;;;;17.10;53.30;;;;;;5042353;28;20027;-86
2023/03/17 07:09:19;;;;;;;;;;;17.40;52.80;;;;;;5044539;28;19960;-86
2023/03/17 07:11:45;;;;;;;;;;;17.60;52.20;;;;;;5047146;28;19908;-87
2023/03/17 07:14:11;;;;;;;;;;;17.90;51.80;;;;;;5045817;28;19908;-86
2023/03/17 07:16:39;;;;;;;;;;;18.40;51.20;;;;;;5046364;28;19920;-86
2023/03/17 07:19:06;;;;;;;;;;;18.70;50.50;;;;;;5046425;28;20417;-87
2023/03/17 07:21:31;;;;;;;;;;;19.00;50.00;;;;;;5050340;28;20140;-87
2023/03/17 07:23:57;;;;;;;;;;;19.40;49.50;;;;;;5047418;28;19939;-86
2023/03/17 07:26:23;;;;;;;;;;;19.70;49.00;;;;;;5047504;28;19913;-87
2023/03/17 07:28:49;;;;;;;;;;;20.20;48.40;;;;;;5045857;28;20143;-87
2023/03/17 07:31:14;;;;;;;;;;;20.50;47.90;;;;;;5045632;28;20048;-87
2023/03/17 07:33:43;;;;;;;;;;;20.80;47.30;;;;;;5043763;28;19909;-87
2023/03/17 07:36:12;;;;;;;;;;;21.10;46.90;;;;;;5042673;28;19917;-87
2023/03/17 07:38:40;;;;;;;;;;;21.40;46.60;;;;;;5042051;28;19909;-87
2023/03/17 07:41:09;;;;;;;;;;;21.60;46.20;;;;;;5044493;28;19909;-87
2023/03/17 07:43:37;;;;;;;;;;;21.80;45.80;;;;;;5045741;28;19908;-87
2023/03/17 07:46:03;;;;;;;;;;;22.00;45.60;;;;;;5046382;28;20202;-87
2023/03/17 07:48:30;;;;;;;;;;;22.10;45.40;;;;;;5046068;28;20121;-87
2023/03/17 07:50:58;;;;;;;;;;;22.30;45.20;;;;;;5049363;28;19909;-87
2023/03/17 07:53:25;;;;;;;;;;;22.50;44.90;;;;;;5048172;28;19920;-87
2023/03/17 07:55:51;;;;;;;;;;;22.60;44.60;;;;;;5046477;28;19909;-87
2023/03/17 07:58:16;;;;;;;;;;;22.70;44.50;;;;;;5045240;28;19979;-87
2023/03/17 08:00:42;;;;;;;;;;;22.80;44.20;;;;;;5043604;28;20306;-87
2023/03/17 08:03:08;;;;;;;;;;;22.80;44.10;;;;;;5045687;28;19908;-86
2023/03/17 08:05:36;;;;;;;;;;;22.90;43.90;;;;;;5045941;28;19932;-86
2023/03/17 08:08:04;;;;;;;;;;;22.70;43.90;;;;;;5044231;28;19955;-87
2023/03/17 08:10:29;;;;;;;;;;;22.60;44.10;;;;;;5044392;28;19913;-87
2023/03/17 08:12:58;;;;;;;;;;;22.40;44.00;;;;;;5044914;28;19909;-87
2023/03/17 08:15:24;;;;;;;;;;;22.10;44.30;;;;;;5045468;28;20338;-87
2023/03/17 08:17:49;;;;;;;;;;;22.00;44.50;;;;;;5046997;28;20417;-87
2023/03/17 08:20:15;;;;;;;;;;;21.60;44.70;;;;;;5046414;28;19927;-87
2023/03/17 08:22:43;;;;;;;;;;;21.20;45.10;;;;;;5043952;28;19921;-87
2023/03/17 08:25:10;;;;;;;;;;;20.90;45.60;;;;;;5046092;28;19916;-87
2023/03/17 08:27:36;;;;;;;;;;;20.50;45.90;;;;;;5045231;28;20329;-86
2023/03/17 08:30:01;;;;;;;;;;;20.30;46.40;;;;;;5040949;28;20065;-86
2023/03/17 08:32:27;;;;;;;;;;;20.30;47.00;;;;;;5042021;28;19909;-86
2023/03/17 08:34:55;;;;;;;;;;;20.40;46.50;;;;;;5042611;28;20314;-86
2023/03/17 08:37:21;;;;;;;;;;;20.40;46.60;;;;;;5041371;28;20289;-86
2023/03/17 08:39:47;;;;;;;;;;;20.60;46.50;;;;;;5043456;28;19912;-86
2023/03/17 08:42:13;;;;;;;;;;;20.60;46.40;;;;;;5043826;28;20023;-87
2023/03/17 08:44:38;;;;;;;;;;;20.60;46.40;;;;;;5043992;28;20025;-87
2023/03/17 08:47:04;;;;;;;;;;;20.40;46.60;;;;;;5044292;28;19919;-87
2023/03/17 08:49:33;;;;;;;;;;;20.20;46.70;;;;;;5045139;28;19947;-87
2023/03/17 08:52:00;;;;;;;;;;;20.20;46.90;;;;;;5045084;28;19917;-87
2023/03/17 08:54:26;;;;;;;;;;;20.20;46.90;;;;;;5045349;28;20183;-87
2023/03/17 08:56:52;;;;;;;;;;;20.30;46.90;;;;;;5049523;28;19913;-87
2023/03/17 08:59:21;;;;;;;;;;;20.30;46.90;;;;;;5049563;28;19927;-87
2023/03/17 09:01:46;;;;;;;;;;;20.20;46.90;;;;;;5049964;28;20024;-86
2023/03/17 09:04:15;;;;;;;;;;;20.60;46.80;;;;;;5050862;28;19991;-87
2023/03/17 09:06:41;;;;;;;;;;;20.70;46.60;;;;;;5050899;28;19947;-87
2023/03/17 09:09:07;;;;;;;;;;;20.70;46.60;;;;;;5049173;28;19912;-87
2023/03/17 09:11:33;;;;;;;;;;;20.60;46.60;;;;;;5047281;28;20075;-87
2023/03/17 09:13:59;;;;;;;;;;;20.90;46.50;;;;;;5047483;28;19917;-87
2023/03/17 09:16:25;;;;;;;;;;;21.40;46.30;;;;;;5049919;28;19909;-87
2023/03/17 09:18:51;;;;;;;;;;;21.80;45.90;;;;;;5049768;28;19912;-88
2023/03/17 09:21:20;;;;;;;;;;;21.70;45.60;;;;;;5050208;28;19909;-87
2023/03/17 09:23:45;;;;;;;;;;;22.30;45.40;;;;;;5049030;28;20182;-87
2023/03/17 09:26:11;;;;;;;;;;;22.40;44.90;;;;;;5048101;28;19917;-87
2023/03/17 09:28:40;;;;;;;;;;;22.40;44.90;;;;;;5049257;28;19935;-87
2023/03/17 09:31:10;;;;;;;;;;;22.50;44.90;;;;;;5048106;28;19920;-87
2023/03/17 09:33:39;;;;;;;;;;;22.60;44.80;;;;;;5049818;28;19976;-87
2023/03/17 09:36:05;;;;;;;;;;;22.50;44.80;;;;;;5047561;28;19986;-87
2023/03/17 09:38:34;;;;;;;;;;;22.50;45.00;;;;;;5049834;28;19939;-87
2023/03/17 09:41:07;;;;;;;;;;;22.60;44.90;;;;;;5047664;28;19916;-87
2023/03/17 09:43:51;;;;;;;;;;;22.60;45.00;;;;;;5048804;28;20210;-86
2023/03/17 09:46:33;;;;;;;;;;;22.70;45.10;;;;;;5046890;28;19987;-86
2023/03/17 09:49:00;;;;;;;;;;;23.00;45.20;;;;;;5047810;28;19987;-87
2023/03/17 09:51:32;;;;;;;;;;;23.50;45.30;;;;;;5045704;28;19909;-86
2023/03/17 09:54:03;;;;;;;;;;;23.80;45.00;;;;;;5043576;28;20320;-87
2023/03/17 09:56:30;;;;;;;;;;;24.00;44.80;;;;;;5043637;28;19948;-87
2023/03/17 09:58:58;;;;;;;;;;;24.10;44.70;;;;;;5054558;28;20387;-87
2023/03/17 10:01:23;;;;;;;;;;;24.00;44.50;;;;;;5045592;28;19940;-86
2023/03/17 10:03:50;;;;;;;;;;;23.50;44.40;;;;;;5045533;28;19959;-86
2023/03/17 10:06:34;;;;;;;;;;;23.00;44.50;;;;;;5044655;28;19909;-86
2023/03/17 10:09:03;;;;;;;;;;;22.50;44.80;;;;;;5046317;28;19979;-88
2023/03/17 10:11:37;;;;;;;;;;;21.80;45.40;;;;;;5046843;28;20044;-86
2023/03/17 10:14:18;;;;;;;;;;;21.30;46.00;;;;;;5046773;28;19909;-87
2023/03/17 10:16:57;;;;;;;;;;;20.80;46.60;;;;;;5047693;28;19944;-87
2023/03/17 10:19:23;;;;;;;;;;;20.50;47.00;;;;;;5045488;28;20099;-86
2023/03/17 10:21:57;;;;;;;;;;;20.20;47.40;;;;;;5044112;28;20267;-87
2023/03/17 10:24:24;;;;;;;;;;;19.90;47.70;;;;;;5045094;28;20408;-87
2023/03/17 10:26:54;;;;;;;;;;;19.70;48.00;;;;;;5046731;28;19963;-86
2023/03/17 10:29:23;;;;;;;;;;;19.50;48.20;;;;;;5047327;28;19921;-87
2023/03/17 10:31:56;;;;;;;;;;;19.40;48.50;;;;;;5045439;28;20072;-86
2023/03/17 10:34:32;;;;;;;;;;;19.20;48.60;;;;;;5045047;28;20477;-86
2023/03/17 10:37:11;;;;;;;;;;;19.10;48.90;;;;;;5050105;28;19927;-86
2023/03/17 10:39:56;;;;;;;;;;;19.00;49.10;;;;;;5053019;28;19909;-86
2023/03/17 10:42:25;;;;;;;;;;;18.80;49.30;;;;;;5051078;28;19908;-86
2023/03/17 10:45:13;;;;;;;;;;;18.70;49.40;;;;;;5046387;28;19909;-86
2023/03/17 10:47:43;;;;;;;;;;;18.70;49.60;;;;;;5045490;28;19909;-87
2023/03/17 10:50:15;;;;;;;;;;;18.60;49.70;;;;;;5048808;28;19931;-86
2023/03/17 10:52:41;;;;;;;;;;;18.60;49.80;;;;;;5046166;28;19940;-86
2023/03/17 10:55:07;;;;;;;;;;;18.50;49.90;;;;;;5046423;28;20123;-86
2023/03/17 10:57:36;;;;;;;;;;;18.50;50.10;;;;;;5044763;28;19908;-87
2023/03/17 11:00:03;;;;;;;;;;;18.40;50.20;;;;;;5044146;28;19986;-86
2023/03/17 11:02:34;;;;;;;;;;;18.30;50.70;;;;;;5045479;28;19923;-86
2023/03/17 11:05:03;;;;;;;;;;;18.30;50.50;;;;;;5042576;28;20213;-87
2023/03/17 11:07:34;;;;;;;;;;;18.20;50.60;;;;;;5050771;28;19909;-86
2023/03/17 11:10:01;;;;;;;;;;;18.20;50.70;;;;;;5051269;28;20003;-87
2023/03/17 11:12:39;;;;;;;;;;;18.20;50.80;;;;;;5052442;28;19909;-87
2023/03/17 11:15:10;;;;;;;;;;;18.20;50.90;;;;;;5049904;28;19916;-86
2023/03/17 11:17:40;;;;;;;;;;;18.20;51.00;;;;;;5049848;28;20430;-87
2023/03/17 11:20:12;;;;;;;;;;;18.10;51.00;;;;;;5051760;28;19919;-87
2023/03/17 11:22:42;;;;;;;;;;;18.10;51.10;;;;;;5049729;28;20241;-86
2023/03/17 11:25:13;;;;;;;;;;;18.10;51.30;;;;;;5049372;28;19940;-86
2023/03/17 11:28:00;;;;;;;;;;;18.10;51.40;;;;;;5051762;28;19913;-86
2023/03/17 11:30:29;;;;;;;;;;;18.10;51.50;;;;;;5046952;28;20273;-86
2023/03/17 11:33:18;;;;;;;;;;;18.10;51.70;;;;;;5044300;28;20213;-86
2023/03/17 11:36:02;;;;;;;;;;;18.00;51.80;;;;;;5032972;28;19928;-86
2023/03/17 11:38:33;;;;;;;;;;;18.00;51.90;;;;;;5044016;28;19909;-86
2023/03/17 11:41:11;;;;;;;;;;;18.00;52.00;;;;;;5043984;28;20315;-86
2023/03/17 11:43:45;;;;;;;;;;;18.00;52.10;;;;;;5044922;28;19909;-86
2023/03/17 11:46:17;;;;;;;;;;;18.00;52.10;;;;;;5042700;28;20015;-86
2023/03/17 11:48:51;;;;;;;;;;;18.00;52.20;;;;;;5041979;28;20008;-86
2023/03/17 11:51:17;;;;;;;;;;;18.00;52.30;;;;;;5045024;28;19916;-86
2023/03/17 11:54:04;;;;;;;;;;;18.00;52.40;;;;;;5043082;28;20069;-86
2023/03/17 11:56:37;;;;;;;;;;;18.00;52.50;;;;;;5043991;28;20070;-86
2023/03/17 11:59:16;;;;;;;;;;;17.90;52.60;;;;;;5050459;28;20206;-86
2023/03/17 12:01:53;;;;;;;;;;;17.90;53.00;;;;;;5051190;28;20055;-86
2023/03/17 12:04:33;;;;;;;;;;;18.00;52.80;;;;;;5051066;28;19908;-86
2023/03/17 12:07:10;;;;;;;;;;;17.90;52.80;;;;;;5050563;28;20493;-86
2023/03/17 12:09:38;;;;;;;;;;;17.90;52.90;;;;;;5050848;28;19913;-86
2023/03/17 12:12:04;;;;;;;;;;;17.90;53.10;;;;;;5042945;28;19909;-86
2023/03/17 12:15:01;;;;;;;;;;;17.90;53.20;;;;;;5048081;28;19909;-86
2023/03/17 12:17:42;;;;;;;;;;;17.90;53.20;;;;;;5044681;28;20023;-86
2023/03/17 12:20:13;;;;;;;;;;;17.90;53.40;;;;;;5044820;28;20098;-87
2023/03/17 12:23:00;;;;;;;;;;;17.90;53.40;;;;;;5045770;28;19908;-87
2023/03/17 12:25:42;;;;;;;;;;;17.90;53.50;;;;;;5049441;28;19909;-87
2023/03/17 12:28:07;;;;;;;;;;;17.90;53.50;;;;;;5048240;28;19919;-87
2023/03/17 12:30:37;;;;;;;;;;;17.90;53.60;;;;;;5048774;28;19913;-87
2023/03/17 12:33:14;;;;;;;;;;;17.90;53.70;;;;;;5050654;28;19909;-87
2023/03/17 12:35:43;;;;;;;;;;;17.90;53.70;;;;;;5050417;28;19920;-87
2023/03/17 12:38:17;;;;;;;;;;;17.90;53.80;;;;;;5049285;28;20121;-87
2023/03/17 12:40:57;;;;;;;;;;;17.90;53.90;;;;;;5043158;28;19909;-87
2023/03/17 12:43:40;;;;;;;;;;;17.90;54.00;;;;;;5050968;28;19909;-87
2023/03/17 12:46:17;;;;;;;;;;;17.80;54.10;;;;;;5041229;28;19932;-87
2023/03/17 12:48:49;;;;;;;;;;;17.80;54.20;;;;;;5042551;28;19935;-86
2023/03/17 12:51:20;;;;;;;;;;;17.80;54.30;;;;;;5043225;28;20012;-87
2023/03/17 12:53:47;;;;;;;;;;;17.80;54.30;;;;;;5043948;28;19909;-86
2023/03/17 12:56:13;;;;;;;;;;;17.80;54.40;;;;;;5044991;28;19939;-87
2023/03/17 12:58:45;;;;;;;;;;;17.80;54.50;;;;;;5046358;28;20000;-87
2023/03/17 13:01:17;;;;;;;;;;;17.80;54.60;;;;;;5057432;28;20434;-86
2023/03/17 13:03:56;;;;;;;;;;;17.80;54.60;;;;;;5049007;28;20038;-87
2023/03/17 13:06:23;;;;;;;;;;;17.80;54.70;;;;;;5040192;28;19974;-86
2023/03/17 13:08:50;;;;;;;;;;;17.80;54.80;;;;;;5041308;28;19916;-87
2023/03/17 13:11:30;;;;;;;;;;;17.80;54.90;;;;;;5040099;28;20049;-86
2023/03/17 13:14:12;;;;;;;;;;;17.80;54.90;;;;;;5037684;28;19908;-87
2023/03/17 13:16:39;;;;;;;;;;;17.80;55.00;;;;;;5040918;28;20003;-86
2023/03/17 13:19:25;;;;;;;;;;;17.80;55.10;;;;;;5040210;28;19920;-86
2023/03/17 13:22:07;;;;;;;;;;;17.80;55.20;;;;;;5043466;28;20162;-86
2023/03/17 13:24:46;;;;;;;;;;;17.80;55.20;;;;;;5047307;28;19909;-86
2023/03/17 13:27:31;;;;;;;;;;;17.80;55.30;;;;;;5042776;28;19932;-86
2023/03/17 13:29:58;;;;;;;;;;;17.80;55.40;;;;;;5040759;28;19982;-87
2023/03/17 13:32:23;;;;;;;;;;;17.80;55.40;;;;;;5051249;28;19939;-87
2023/03/17 13:34:51;;;;;;;;;;;17.80;55.50;;;;;;5033480;28;20234;-87
2023/03/17 13:37:33;;;;;;;;;;;17.80;55.50;;;;;;5031080;28;20232;-87
2023/03/17 13:40:17;;;;;;;;;;;17.80;55.60;;;;;;5033980;28;19920;-87
2023/03/17 13:42:42;;;;;;;;;;;17.80;55.60;;;;;;5034206;28;20362;-87
2023/03/17 13:45:15;;;;;;;;;;;17.80;55.70;;;;;;5053264;28;20259;-87
2023/03/17 13:47:41;;;;;;;;;;;17.80;55.70;;;;;;5054194;28;19924;-87
2023/03/17 13:50:12;;;;;;;;;;;17.80;55.80;;;;;;5055265;28;19913;-87
2023/03/17 13:52:44;;;;;;;;;;;17.90;55.90;;;;;;5053026;28;19923;-87
2023/03/17 13:55:16;;;;;;;;;;;17.90;56.00;;;;;;5053015;28;19913;-87
2023/03/17 13:57:52;;;;;;;;;;;17.90;56.00;;;;;;5033667;28;20014;-87
2023/03/17 14:00:18;;;;;;;;;;;17.90;56.10;;;;;;5050797;28;19913;-86
2023/03/17 14:02:45;;;;;;;;;;;17.90;56.10;;;;;;5054617;28;19919;-87
2023/03/17 14:05:24;;;;;;;;;;;17.90;56.20;;;;;;5034973;28;19940;-86
2023/03/17 14:07:52;;;;;;;;;;;17.90;56.20;;;;;;5034788;28;19909;-86
2023/03/17 14:10:21;;;;;;;;;;;17.90;56.40;;;;;;5033875;28;19918;-87
2023/03/17 14:13:05;;;;;;;;;;;17.90;56.80;;;;;;5040579;28;19912;-87
2023/03/17 14:15:40;;;;;;;;;;;17.90;56.40;;;;;;5046326;28;19953;-87
2023/03/17 14:18:09;;;;;;;;;;;17.90;56.50;;;;;;5045057;28;20102;-87
2023/03/17 14:20:38;;;;;;;;;;;17.90;56.50;;;;;;5043662;28;20310;-87
2023/03/17 14:23:04;;;;;;;;;;;17.90;56.60;;;;;;5044791;28;19909;-87
2023/03/17 14:25:31;;;;;;;;;;;17.90;56.70;;;;;;5034510;28;19913;-87
2023/03/17 14:27:57;;;;;;;;;;;17.90;56.70;;;;;;5040682;28;19909;-87